Time;durP1;ratioP1;P1;durP2;ratioP2;P2;SDS_P1;SDS_P2;PMS_P1;PMS_P2;Temp;Humidity;BMP_temperature;BMP_pressure;BME280_temperature;BME280_humidity;BME280_pressure;Samples;Min_cycle;Max_cycle;Signal;HPM_P1;HPM_P2
2022/08/17 00:01:16;;;;;;;16.80;10.23;;;;;;;;;;2071063;28;20037;-61
2022/08/17 00:02:35;;;;;;;18.10;10.25;;;;;;;;;;2069192;28;20651;-61
2022/08/17 00:03:56;;;;;;;12.82;10.40;;;;;;;;;;2069018;28;20045;-61
2022/08/17 00:05:15;;;;;;;13.05;9.48;;;;;;;;;;2072910;28;20394;-61
2022/08/17 00:06:34;;;;;;;14.18;10.60;;;;;;;;;;2069930;28;20034;-61
2022/08/17 00:07:53;;;;;;;15.65;10.25;;;;;;;;;;2068057;28;20038;-61
2022/08/17 00:09:12;;;;;;;12.50;10.13;;;;;;;;;;2071745;28;20026;-61
2022/08/17 00:10:31;;;;;;;12.13;10.32;;;;;;;;;;2071477;28;20033;-61
2022/08/17 00:11:50;;;;;;;11.27;10.27;;;;;;;;;;2070606;28;20390;-61
2022/08/17 00:13:11;;;;;;;17.08;11.10;;;;;;;;;;2069385;28;20104;-61
2022/08/17 00:14:30;;;;;;;11.98;10.73;;;;;;;;;;2069897;28;20026;-61
2022/08/17 00:15:49;;;;;;;13.88;10.70;;;;;;;;;;2068979;28;20030;-61
2022/08/17 00:17:08;;;;;;;12.82;10.65;;;;;;;;;;2068329;28;20046;-61
2022/08/17 00:18:28;;;;;;;14.52;10.80;;;;;;;;;;2069136;28;20493;-61
2022/08/17 00:19:47;;;;;;;10.88;9.75;;;;;;;;;;2072512;28;20550;-61
2022/08/17 00:21:06;;;;;;;12.23;10.50;;;;;;;;;;2068986;28;20441;-61
2022/08/17 00:22:26;;;;;;;11.82;10.65;;;;;;;;;;2071426;28;20046;-61
2022/08/17 00:23:45;;;;;;;11.60;10.50;;;;;;;;;;2069244;28;20121;-61
2022/08/17 00:25:07;;;;;;;12.45;11.00;;;;;;;;;;2072026;28;20645;-61
2022/08/17 00:26:26;;;;;;;16.17;11.15;;;;;;;;;;2070268;28;20038;-61
2022/08/17 00:27:45;;;;;;;15.02;11.68;;;;;;;;;;2071227;28;20418;-61
2022/08/17 00:29:05;;;;;;;15.38;10.90;;;;;;;;;;2073000;28;20034;-61
2022/08/17 00:30:24;;;;;;;15.55;11.27;;;;;;;;;;2070376;28;20030;-61
2022/08/17 00:31:43;;;;;;;12.48;10.32;;;;;;;;;;2072135;28;20032;-61
2022/08/17 00:33:07;;;;;;;11.75;10.35;;;;;;;;;;2070377;28;20038;-61
2022/08/17 00:34:26;;;;;;;16.67;10.90;;;;;;;;;;2069452;28;20038;-62
2022/08/17 00:35:45;;;;;;;11.93;10.85;;;;;;;;;;2070933;28;20033;-61
2022/08/17 00:37:04;;;;;;;17.33;10.98;;;;;;;;;;2070865;28;20030;-61
2022/08/17 00:38:24;;;;;;;12.35;10.15;;;;;;;;;;2068511;28;20050;-61
2022/08/17 00:39:43;;;;;;;17.73;10.52;;;;;;;;;;2071747;28;20590;-62
2022/08/17 00:41:12;;;;;;;14.68;11.27;;;;;;;;;;2068315;28;20030;-62
2022/08/17 00:42:32;;;;;;;15.68;10.77;;;;;;;;;;2071033;28;20034;-62
2022/08/17 00:43:55;;;;;;;15.77;10.73;;;;;;;;;;2068330;28;20485;-62
2022/08/17 00:45:15;;;;;;;12.07;10.85;;;;;;;;;;2069693;28;20034;-62
2022/08/17 00:46:39;;;;;;;16.08;11.77;;;;;;;;;;2070274;28;20038;-61
2022/08/17 00:47:57;;;;;;;14.90;10.15;;;;;;;;;;2069122;28;20026;-61
2022/08/17 00:49:22;;;;;;;16.50;11.40;;;;;;;;;;2070696;28;20133;-61
2022/08/17 00:50:47;;;;;;;18.08;12.20;;;;;;;;;;2071398;28;20030;-62
2022/08/17 00:52:11;;;;;;;16.58;11.38;;;;;;;;;;2071249;28;20065;-62
2022/08/17 00:53:31;;;;;;;18.05;10.82;;;;;;;;;;2069058;28;20030;-62
2022/08/17 00:54:52;;;;;;;11.77;10.48;;;;;;;;;;2068806;28;20026;-62
2022/08/17 00:56:13;;;;;;;18.30;10.85;;;;;;;;;;2070631;28;20026;-61
2022/08/17 00:57:35;;;;;;;12.75;11.48;;;;;;;;;;2071085;28;20128;-62
2022/08/17 00:58:54;;;;;;;15.13;10.88;;;;;;;;;;2068547;28;20117;-62
2022/08/17 01:00:25;;;;;;;15.55;11.65;;;;;;;;;;2069859;28;20030;-62
2022/08/17 01:01:46;;;;;;;13.30;11.27;;;;;;;;;;2070990;28;20030;-62
2022/08/17 01:03:07;;;;;;;15.68;11.55;;;;;;;;;;2071072;28;20081;-62
2022/08/17 01:04:27;;;;;;;13.80;11.35;;;;;;;;;;2069307;28;20041;-61
2022/08/17 01:05:49;;;;;;;12.13;10.93;;;;;;;;;;2070582;28;20030;-62
2022/08/17 01:07:10;;;;;;;15.57;11.85;;;;;;;;;;2079430;28;20033;-62
2022/08/17 01:08:30;;;;;;;13.95;11.68;;;;;;;;;;2072728;28;20565;-61
2022/08/17 01:09:50;;;;;;;14.45;11.25;;;;;;;;;;2069075;28;20073;-61
2022/08/17 01:11:09;;;;;;;12.23;11.02;;;;;;;;;;2070758;28;20034;-61
2022/08/17 01:12:29;;;;;;;17.30;11.85;;;;;;;;;;2067404;28;20109;-61
2022/08/17 01:13:48;;;;;;;12.82;11.60;;;;;;;;;;2067281;28;20033;-61
2022/08/17 01:15:07;;;;;;;15.20;11.52;;;;;;;;;;2069238;28;20033;-60
2022/08/17 01:16:27;;;;;;;17.60;11.32;;;;;;;;;;2071843;28;20022;-61
2022/08/17 01:17:46;;;;;;;12.77;11.45;;;;;;;;;;2070854;28;20488;-61
2022/08/17 01:19:09;;;;;;;17.10;11.25;;;;;;;;;;2069055;28;20030;-62
2022/08/17 01:20:28;;;;;;;14.05;11.55;;;;;;;;;;2071099;28;20101;-61
2022/08/17 01:21:59;;;;;;;12.35;11.07;;;;;;;;;;2070383;28;20041;-63
2022/08/17 01:23:20;;;;;;;13.30;11.80;;;;;;;;;;2072440;28;20057;-61
2022/08/17 01:24:43;;;;;;;11.98;10.75;;;;;;;;;;2068882;28;20026;-61
2022/08/17 01:26:04;;;;;;;15.85;11.52;;;;;;;;;;2068632;28;20600;-61
2022/08/17 01:27:25;;;;;;;16.67;11.57;;;;;;;;;;2070319;28;20025;-62
2022/08/17 01:28:44;;;;;;;13.52;11.38;;;;;;;;;;2067091;28;20026;-60
2022/08/17 01:30:05;;;;;;;17.10;12.38;;;;;;;;;;2070575;28;20033;-61
2022/08/17 01:31:27;;;;;;;13.50;12.10;;;;;;;;;;2068255;28;20031;-62
2022/08/17 01:32:46;;;;;;;14.05;11.98;;;;;;;;;;2069267;28;20109;-62
2022/08/17 01:34:06;;;;;;;15.57;11.70;;;;;;;;;;2067126;28;20556;-61
2022/08/17 01:35:25;;;;;;;20.15;13.27;;;;;;;;;;2071807;28;20022;-61
2022/08/17 01:36:45;;;;;;;13.05;11.75;;;;;;;;;;2069085;28;20021;-62
2022/08/17 01:38:05;;;;;;;15.27;12.00;;;;;;;;;;2070653;28;20034;-61
2022/08/17 01:39:24;;;;;;;14.48;12.40;;;;;;;;;;2069499;28;20409;-61
2022/08/17 01:40:53;;;;;;;14.95;12.20;;;;;;;;;;2070490;28;20026;-62
2022/08/17 01:42:31;;;;;;;13.70;11.93;;;;;;;;;;2065281;28;20030;-61
2022/08/17 01:43:57;;;;;;;14.43;12.50;;;;;;;;;;2061125;28;20462;-61
2022/08/17 01:45:18;;;;;;;13.70;12.40;;;;;;;;;;2066765;28;20101;-61
2022/08/17 01:46:37;;;;;;;14.30;12.57;;;;;;;;;;2070115;28;20022;-62
2022/08/17 01:47:56;;;;;;;13.48;12.15;;;;;;;;;;2069461;28;20034;-60
2022/08/17 01:49:15;;;;;;;13.00;11.77;;;;;;;;;;2070551;28;20112;-61
2022/08/17 01:50:36;;;;;;;13.40;12.00;;;;;;;;;;2071115;28;20029;-61
2022/08/17 01:51:55;;;;;;;21.90;12.93;;;;;;;;;;2068863;28;20113;-61
2022/08/17 01:53:28;;;;;;;19.20;12.52;;;;;;;;;;2070536;28;20429;-62
2022/08/17 01:54:47;;;;;;;14.45;12.57;;;;;;;;;;2065935;28;20030;-61
2022/08/17 01:56:08;;;;;;;16.45;13.30;;;;;;;;;;2069260;28;20023;-61
2022/08/17 01:57:27;;;;;;;23.80;13.20;;;;;;;;;;2068175;28;20041;-61
2022/08/17 01:58:46;;;;;;;14.10;12.88;;;;;;;;;;2067321;28;20038;-62
2022/08/17 02:00:06;;;;;;;18.38;13.50;;;;;;;;;;2068738;28;20065;-61
2022/08/17 02:01:26;;;;;;;14.63;12.98;;;;;;;;;;2071888;28;20029;-61
2022/08/17 02:02:45;;;;;;;16.33;12.70;;;;;;;;;;2070872;28;20026;-61
2022/08/17 02:04:05;;;;;;;15.55;13.15;;;;;;;;;;2069573;28;20030;-61
2022/08/17 02:05:24;;;;;;;14.52;12.90;;;;;;;;;;2071204;28;20116;-61
2022/08/17 02:06:44;;;;;;;15.70;12.57;;;;;;;;;;2069729;28;20499;-61
2022/08/17 02:08:03;;;;;;;14.20;12.75;;;;;;;;;;2069434;28;20478;-59
2022/08/17 02:09:23;;;;;;;13.93;12.55;;;;;;;;;;2069880;28;20026;-61
2022/08/17 02:10:42;;;;;;;14.25;12.77;;;;;;;;;;2071340;28;20386;-61
2022/08/17 02:12:02;;;;;;;15.00;13.13;;;;;;;;;;2068163;28;20035;-59
2022/08/17 02:13:22;;;;;;;15.25;12.18;;;;;;;;;;2072026;28;20422;-61
2022/08/17 02:14:41;;;;;;;15.25;12.57;;;;;;;;;;2067608;28;20524;-61
2022/08/17 02:16:00;;;;;;;13.75;12.30;;;;;;;;;;2066641;28;20058;-61
2022/08/17 02:17:19;;;;;;;15.40;13.98;;;;;;;;;;2070985;28;20061;-61
2022/08/17 02:18:38;;;;;;;14.55;13.07;;;;;;;;;;2069580;28;20034;-60
2022/08/17 02:19:57;;;;;;;18.52;12.55;;;;;;;;;;2069182;28;20053;-61
2022/08/17 02:21:16;;;;;;;17.67;13.40;;;;;;;;;;2068938;28;20066;-61
2022/08/17 02:22:36;;;;;;;16.00;13.57;;;;;;;;;;2067682;28;20026;-62
2022/08/17 02:23:55;;;;;;;16.80;13.23;;;;;;;;;;2069996;28;20026;-60
2022/08/17 02:25:16;;;;;;;15.82;12.57;;;;;;;;;;2070634;28;20061;-61
2022/08/17 02:26:36;;;;;;;15.75;12.45;;;;;;;;;;2071582;28;20102;-61
2022/08/17 02:27:55;;;;;;;14.65;13.25;;;;;;;;;;2070075;28;20026;-61
2022/08/17 02:29:14;;;;;;;16.92;13.20;;;;;;;;;;2068522;28;20034;-61
2022/08/17 02:30:33;;;;;;;18.80;13.43;;;;;;;;;;2067126;28;20030;-60
2022/08/17 02:31:52;;;;;;;14.68;13.38;;;;;;;;;;2067733;28;20026;-61
2022/08/17 02:33:11;;;;;;;16.65;13.45;;;;;;;;;;2070745;28;20026;-61
2022/08/17 02:34:31;;;;;;;17.25;13.32;;;;;;;;;;2067969;28;20530;-62
2022/08/17 02:35:51;;;;;;;15.48;12.60;;;;;;;;;;2068510;28;20038;-61
2022/08/17 02:37:10;;;;;;;14.57;13.18;;;;;;;;;;2067949;28;20021;-61
2022/08/17 02:38:30;;;;;;;17.10;13.82;;;;;;;;;;2068416;28;20030;-61
2022/08/17 02:39:49;;;;;;;20.95;13.55;;;;;;;;;;2070092;28;20030;-61
2022/08/17 02:41:08;;;;;;;15.73;14.05;;;;;;;;;;2070830;28;20478;-61
2022/08/17 02:42:33;;;;;;;17.25;13.93;;;;;;;;;;2071455;28;20030;-61
2022/08/17 02:43:52;;;;;;;15.38;13.77;;;;;;;;;;2071866;28;20029;-61
2022/08/17 02:45:13;;;;;;;15.18;12.68;;;;;;;;;;2069822;28;20026;-61
2022/08/17 02:46:33;;;;;;;15.55;13.98;;;;;;;;;;2071650;28;20500;-61
2022/08/17 02:47:52;;;;;;;16.08;14.38;;;;;;;;;;2072568;28;20030;-61
2022/08/17 02:49:11;;;;;;;18.95;13.73;;;;;;;;;;2081350;28;20045;-61
2022/08/17 02:50:30;;;;;;;15.27;13.77;;;;;;;;;;2074190;28;20704;-61
2022/08/17 02:51:49;;;;;;;15.60;13.40;;;;;;;;;;2069624;28;20034;-61
2022/08/17 02:53:08;;;;;;;16.92;15.20;;;;;;;;;;2072195;28;20187;-61
2022/08/17 02:54:27;;;;;;;16.30;14.70;;;;;;;;;;2069340;28;20034;-61
2022/08/17 02:55:46;;;;;;;19.88;15.95;;;;;;;;;;2071452;28;20130;-61
2022/08/17 02:57:05;;;;;;;22.50;15.40;;;;;;;;;;2072673;28;20030;-61
2022/08/17 02:58:24;;;;;;;16.85;15.07;;;;;;;;;;2071090;28;20044;-60
2022/08/17 02:59:43;;;;;;;18.58;14.35;;;;;;;;;;2072750;28;20494;-61
2022/08/17 03:01:06;;;;;;;17.45;13.70;;;;;;;;;;2070522;28;20033;-61
2022/08/17 03:02:25;;;;;;;16.80;14.88;;;;;;;;;;2073201;28;20025;-61
2022/08/17 03:03:44;;;;;;;16.63;15.10;;;;;;;;;;2073501;28;20431;-61
2022/08/17 03:05:04;;;;;;;17.77;15.82;;;;;;;;;;2073443;28;20038;-61
2022/08/17 03:06:23;;;;;;;19.17;15.73;;;;;;;;;;2069306;28;20068;-61
2022/08/17 03:07:42;;;;;;;16.73;14.80;;;;;;;;;;2072242;28;20038;-61
2022/08/17 03:09:01;;;;;;;18.58;15.75;;;;;;;;;;2072128;28;20493;-61
2022/08/17 03:10:20;;;;;;;22.65;17.15;;;;;;;;;;2071378;28;20474;-61
2022/08/17 03:11:39;;;;;;;17.92;16.05;;;;;;;;;;2070444;28;20034;-61
2022/08/17 03:12:58;;;;;;;22.65;17.73;;;;;;;;;;2072563;28;20034;-62
2022/08/17 03:14:17;;;;;;;19.45;17.23;;;;;;;;;;2070657;28;20026;-61
2022/08/17 03:15:38;;;;;;;17.40;15.60;;;;;;;;;;2071033;28;20113;-61
2022/08/17 03:16:57;;;;;;;23.45;15.80;;;;;;;;;;2073162;28;20029;-61
2022/08/17 03:18:18;;;;;;;17.92;16.20;;;;;;;;;;2069857;28;20030;-61
2022/08/17 03:19:37;;;;;;;18.45;15.38;;;;;;;;;;2071547;28;20489;-61
2022/08/17 03:20:58;;;;;;;17.92;15.40;;;;;;;;;;2068076;28;20042;-61
2022/08/17 03:22:17;;;;;;;18.23;16.42;;;;;;;;;;2070530;28;20034;-61
2022/08/17 03:23:39;;;;;;;17.20;15.57;;;;;;;;;;2073306;28;20038;-61
2022/08/17 03:24:59;;;;;;;18.45;15.15;;;;;;;;;;2072924;28;20490;-62
2022/08/17 03:26:18;;;;;;;16.92;15.23;;;;;;;;;;2069087;28;20857;-61
2022/08/17 03:27:37;;;;;;;20.00;15.75;;;;;;;;;;2071221;28;20033;-61
2022/08/17 03:28:56;;;;;;;19.33;17.25;;;;;;;;;;2071044;28;20042;-61
2022/08/17 03:30:15;;;;;;;17.88;16.25;;;;;;;;;;2070553;28;20026;-61
2022/08/17 03:31:34;;;;;;;18.42;16.60;;;;;;;;;;2069823;28;20022;-61
2022/08/17 03:32:58;;;;;;;20.27;16.75;;;;;;;;;;2071973;28;20034;-61
2022/08/17 03:34:17;;;;;;;15.70;14.25;;;;;;;;;;2070013;28;20644;-61
2022/08/17 03:35:39;;;;;;;24.05;16.95;;;;;;;;;;2072378;28;20037;-61
2022/08/17 03:36:57;;;;;;;19.58;16.90;;;;;;;;;;2069384;28;20030;-61
2022/08/17 03:38:17;;;;;;;19.70;17.70;;;;;;;;;;2069214;28;20659;-61
2022/08/17 03:39:36;;;;;;;18.15;16.30;;;;;;;;;;2072151;28;20034;-61
2022/08/17 03:40:56;;;;;;;19.40;17.30;;;;;;;;;;2070857;28;20430;-61
2022/08/17 03:42:16;;;;;;;19.05;17.25;;;;;;;;;;2071758;28;20434;-61
2022/08/17 03:43:35;;;;;;;19.40;17.40;;;;;;;;;;2072597;28;20030;-61
2022/08/17 03:44:56;;;;;;;19.15;16.85;;;;;;;;;;2070989;28;20022;-61
2022/08/17 03:57:42;;;;;;;19.80;17.73;;;;;;;;;;2072794;28;20393;-61
2022/08/17 03:59:01;;;;;;;21.05;18.48;;;;;;;;;;2070010;28;20037;-61
2022/08/17 04:00:20;;;;;;;20.02;18.02;;;;;;;;;;2068827;28;20490;-61
2022/08/17 04:01:39;;;;;;;19.98;17.80;;;;;;;;;;2067621;28;20055;-61
2022/08/17 04:02:58;;;;;;;23.10;20.20;;;;;;;;;;2071709;28;20386;-61
2022/08/17 04:04:18;;;;;;;19.83;17.80;;;;;;;;;;2068717;28;20030;-61
2022/08/17 04:05:37;;;;;;;22.42;19.13;;;;;;;;;;2071651;28;20026;-61
2022/08/17 04:06:57;;;;;;;21.15;19.20;;;;;;;;;;2070756;28;20035;-61
2022/08/17 04:08:16;;;;;;;20.83;17.92;;;;;;;;;;2072082;28;20609;-61
2022/08/17 04:09:35;;;;;;;20.88;18.77;;;;;;;;;;2072640;28;20022;-61
2022/08/17 04:10:55;;;;;;;20.45;18.15;;;;;;;;;;2069934;28;20026;-62
2022/08/17 04:12:15;;;;;;;20.10;18.13;;;;;;;;;;2069075;28;20026;-61
2022/08/17 04:13:34;;;;;;;21.90;18.75;;;;;;;;;;2071331;28;20037;-59
2022/08/17 04:14:53;;;;;;;22.88;18.70;;;;;;;;;;2069133;28;20034;-61
2022/08/17 04:16:11;;;;;;;26.17;18.83;;;;;;;;;;2069456;28;20066;-61
2022/08/17 04:17:30;;;;;;;21.45;19.33;;;;;;;;;;2071229;28;20034;-61
2022/08/17 04:18:49;;;;;;;21.65;19.30;;;;;;;;;;2069805;28;20038;-61
2022/08/17 04:20:09;;;;;;;19.98;18.08;;;;;;;;;;2070491;28;20112;-62
2022/08/17 04:21:28;;;;;;;21.33;19.00;;;;;;;;;;2071567;28;20030;-62
2022/08/17 04:23:13;;;;;;;25.80;18.73;;;;;;;;;;2071923;28;20034;-62
2022/08/17 04:24:33;;;;;;;21.98;19.42;;;;;;;;;;2071397;28;20022;-62
2022/08/17 04:25:52;;;;;;;20.67;18.60;;;;;;;;;;2072916;28;20033;-62
2022/08/17 04:27:11;;;;;;;20.70;18.77;;;;;;;;;;2070934;28;20049;-61
2022/08/17 04:28:30;;;;;;;22.55;18.95;;;;;;;;;;2069403;28;20038;-60
2022/08/17 04:29:49;;;;;;;20.20;18.33;;;;;;;;;;2069321;28;20700;-61
2022/08/17 04:31:09;;;;;;;23.30;18.27;;;;;;;;;;2069765;28;20120;-61
2022/08/17 04:32:28;;;;;;;20.98;18.75;;;;;;;;;;2066521;28;20030;-60
2022/08/17 04:33:47;;;;;;;21.88;19.60;;;;;;;;;;2069376;28;21189;-61
2022/08/17 04:35:06;;;;;;;23.15;19.58;;;;;;;;;;2070531;28;20022;-60
2022/08/17 04:36:25;;;;;;;29.00;19.75;;;;;;;;;;2071469;28;20026;-61
2022/08/17 04:37:44;;;;;;;21.70;19.50;;;;;;;;;;2068901;28;20108;-61
2022/08/17 04:39:04;;;;;;;25.33;18.73;;;;;;;;;;2068803;28;20149;-61
2022/08/17 04:42:15;;;;;;;23.77;19.17;;;;;;;;;;2066966;28;20141;-60
2022/08/17 04:43:35;;;;;;;23.10;18.13;;;;;;;;;;2065855;28;20037;-61
2022/08/17 04:44:53;;;;;;;21.23;18.80;;;;;;;;;;2069144;28;20030;-61
2022/08/17 04:46:13;;;;;;;20.38;18.27;;;;;;;;;;2070122;28;20399;-61
2022/08/17 04:47:32;;;;;;;21.63;19.35;;;;;;;;;;2069988;28;20042;-60
2022/08/17 04:48:52;;;;;;;20.98;18.95;;;;;;;;;;2068358;28;20038;-60
2022/08/17 04:50:11;;;;;;;24.88;19.88;;;;;;;;;;2071893;28;20045;-60
2022/08/17 04:51:32;;;;;;;21.33;18.77;;;;;;;;;;2069704;28;20097;-60
2022/08/17 04:52:51;;;;;;;22.05;19.65;;;;;;;;;;2068134;28;20162;-60
2022/08/17 04:54:11;;;;;;;21.10;18.83;;;;;;;;;;2069269;28;20022;-61
2022/08/17 04:55:30;;;;;;;20.90;18.02;;;;;;;;;;2070591;28;20018;-61
2022/08/17 04:56:49;;;;;;;20.67;18.88;;;;;;;;;;2070702;28;20026;-61
2022/08/17 04:58:09;;;;;;;22.65;19.40;;;;;;;;;;2067735;28;20417;-61
2022/08/17 04:59:27;;;;;;;21.85;19.50;;;;;;;;;;2069314;28;20034;-61
2022/08/17 05:00:46;;;;;;;21.42;19.20;;;;;;;;;;2068124;28;20038;-61
2022/08/17 05:02:05;;;;;;;21.35;19.25;;;;;;;;;;2070725;28;20049;-60
2022/08/17 05:03:24;;;;;;;21.42;18.95;;;;;;;;;;2070108;28;20390;-60
2022/08/17 05:04:43;;;;;;;28.30;20.77;;;;;;;;;;2067997;28;20104;-61
2022/08/17 05:06:02;;;;;;;22.95;19.92;;;;;;;;;;2070065;28;20033;-60
2022/08/17 05:07:21;;;;;;;22.98;19.23;;;;;;;;;;2069952;28;20030;-60
2022/08/17 05:08:40;;;;;;;22.75;20.52;;;;;;;;;;2068566;28;20030;-60
2022/08/17 05:09:59;;;;;;;22.42;20.10;;;;;;;;;;2065323;28;20210;-60
2022/08/17 05:11:18;;;;;;;23.15;20.50;;;;;;;;;;2071676;28;20026;-60
2022/08/17 05:12:38;;;;;;;21.90;19.70;;;;;;;;;;2065454;28;20026;-59
2022/08/17 05:13:57;;;;;;;22.05;19.30;;;;;;;;;;2068982;28;20113;-59
2022/08/17 05:15:16;;;;;;;22.52;20.17;;;;;;;;;;2068924;28;20034;-60
2022/08/17 05:16:35;;;;;;;22.33;20.02;;;;;;;;;;2070791;28;20607;-60
2022/08/17 05:17:54;;;;;;;22.98;20.63;;;;;;;;;;2069135;28;20041;-60
2022/08/17 05:19:13;;;;;;;21.95;19.65;;;;;;;;;;2069813;28;20041;-59
2022/08/17 05:20:33;;;;;;;20.27;18.38;;;;;;;;;;2071745;28;20065;-60
2022/08/17 05:21:52;;;;;;;24.05;19.48;;;;;;;;;;2069335;28;20486;-59
2022/08/17 05:23:12;;;;;;;23.70;19.63;;;;;;;;;;2067384;28;20034;-60
2022/08/17 05:24:32;;;;;;;21.65;18.80;;;;;;;;;;2068956;28;20041;-60
2022/08/17 05:25:54;;;;;;;24.00;20.65;;;;;;;;;;2070898;28;20026;-61
2022/08/17 05:27:13;;;;;;;21.40;19.15;;;;;;;;;;2069190;28;20394;-61
2022/08/17 05:28:32;;;;;;;20.90;18.73;;;;;;;;;;2069454;28;20026;-61
2022/08/17 05:29:51;;;;;;;19.85;18.00;;;;;;;;;;2070684;28;20041;-61
2022/08/17 05:31:10;;;;;;;23.17;20.83;;;;;;;;;;2068560;28;20470;-61
2022/08/17 05:32:29;;;;;;;23.23;19.60;;;;;;;;;;2070746;28;20042;-61
2022/08/17 05:33:48;;;;;;;21.65;19.35;;;;;;;;;;2069433;28;20050;-61
2022/08/17 05:35:07;;;;;;;23.45;21.15;;;;;;;;;;2071333;28;20557;-61
2022/08/17 05:36:26;;;;;;;23.55;20.15;;;;;;;;;;2071190;28;20034;-61
2022/08/17 05:37:44;;;;;;;22.83;20.50;;;;;;;;;;2071099;28;20057;-61
2022/08/17 05:39:03;;;;;;;21.83;19.70;;;;;;;;;;2069029;28;20038;-61
2022/08/17 05:40:24;;;;;;;23.77;20.17;;;;;;;;;;2070997;28;20030;-61
2022/08/17 05:41:45;;;;;;;20.08;17.73;;;;;;;;;;2070413;28;20022;-61
2022/08/17 05:43:06;;;;;;;22.83;20.35;;;;;;;;;;2070185;28;20030;-61
2022/08/17 05:44:25;;;;;;;23.52;21.25;;;;;;;;;;2071548;28;20454;-61
2022/08/17 05:46:01;;;;;;;24.83;22.10;;;;;;;;;;2069995;28;20030;-61
2022/08/17 05:47:21;;;;;;;27.60;22.85;;;;;;;;;;2070989;28;20061;-61
2022/08/17 05:48:42;;;;;;;28.50;23.20;;;;;;;;;;2069589;28;20022;-61
2022/08/17 05:50:02;;;;;;;30.05;23.35;;;;;;;;;;2070638;28;20494;-61
2022/08/17 05:51:28;;;;;;;28.15;23.48;;;;;;;;;;2067606;28;20495;-61
2022/08/17 05:52:53;;;;;;;25.85;23.20;;;;;;;;;;2070678;28;20057;-60
2022/08/17 05:54:12;;;;;;;25.25;22.75;;;;;;;;;;2069169;28;20038;-61
2022/08/17 05:55:45;;;;;;;25.05;22.30;;;;;;;;;;2068438;28;20495;-61
2022/08/17 05:57:23;;;;;;;25.65;23.30;;;;;;;;;;2068587;28;20038;-61
2022/08/17 05:58:48;;;;;;;26.52;22.88;;;;;;;;;;2067557;28;20679;-61
2022/08/17 06:00:10;;;;;;;24.52;22.00;;;;;;;;;;2070162;28;20038;-60
2022/08/17 06:01:38;;;;;;;27.40;22.98;;;;;;;;;;2070974;28;20030;-61
2022/08/17 06:03:06;;;;;;;26.02;23.13;;;;;;;;;;2071558;28;20038;-61
2022/08/17 06:04:30;;;;;;;24.52;22.13;;;;;;;;;;2070473;28;20037;-61
2022/08/17 06:06:20;;;;;;;23.85;21.58;;;;;;;;;;2071264;28;20070;-61
2022/08/17 06:07:54;;;;;;;24.08;21.42;;;;;;;;;;2065340;28;20034;-61
2022/08/17 06:09:17;;;;;;;22.50;20.15;;;;;;;;;;2070491;28;20038;-61
2022/08/17 06:10:41;;;;;;;24.15;21.55;;;;;;;;;;2070729;28;20029;-61
2022/08/17 06:12:00;;;;;;;22.65;20.40;;;;;;;;;;2071410;28;20121;-61
2022/08/17 06:13:25;;;;;;;22.05;18.98;;;;;;;;;;2071249;28;20113;-61
2022/08/17 06:14:50;;;;;;;25.25;20.48;;;;;;;;;;2070970;28;20117;-61
2022/08/17 06:16:14;;;;;;;21.77;19.40;;;;;;;;;;2070483;28;20108;-61
2022/08/17 06:17:34;;;;;;;22.83;20.38;;;;;;;;;;2070737;28;20414;-61
2022/08/17 06:18:58;;;;;;;21.02;18.80;;;;;;;;;;2069817;28;20124;-61
2022/08/17 06:20:18;;;;;;;20.40;18.30;;;;;;;;;;2072404;28;20022;-61
2022/08/17 06:21:38;;;;;;;20.70;18.75;;;;;;;;;;2072740;28;20486;-61
2022/08/17 06:23:03;;;;;;;23.25;19.33;;;;;;;;;;2072315;28;20034;-62
2022/08/17 06:24:26;;;;;;;19.75;17.80;;;;;;;;;;2070765;28;20030;-60
2022/08/17 06:25:47;;;;;;;20.33;18.42;;;;;;;;;;2072488;28;20025;-61
2022/08/17 06:27:08;;;;;;;21.58;19.13;;;;;;;;;;2073564;28;20030;-61
2022/08/17 06:28:57;;;;;;;20.48;18.55;;;;;;;;;;2073178;28;20026;-61
2022/08/17 06:30:27;;;;;;;23.42;19.52;;;;;;;;;;2069754;28;20050;-61
2022/08/17 06:31:46;;;;;;;20.35;17.98;;;;;;;;;;2071139;28;20064;-62
2022/08/17 06:33:08;;;;;;;20.10;18.25;;;;;;;;;;2071995;28;20030;-61
2022/08/17 06:34:28;;;;;;;19.98;17.95;;;;;;;;;;2070569;28;20026;-61
2022/08/17 06:36:07;;;;;;;20.98;18.20;;;;;;;;;;2072776;28;20030;-61
2022/08/17 06:37:37;;;;;;;19.90;18.02;;;;;;;;;;2073080;28;20117;-61
2022/08/17 06:39:15;;;;;;;20.55;18.33;;;;;;;;;;2072481;28;20395;-61
2022/08/17 06:40:48;;;;;;;19.48;17.17;;;;;;;;;;2072511;28;20116;-61
2022/08/17 06:42:13;;;;;;;19.33;17.45;;;;;;;;;;2073067;28;20034;-61
2022/08/17 06:43:39;;;;;;;20.40;17.92;;;;;;;;;;2072583;28;20026;-61
2022/08/17 06:45:09;;;;;;;18.70;16.77;;;;;;;;;;2068736;28;20061;-61
2022/08/17 06:46:33;;;;;;;19.73;17.27;;;;;;;;;;2072233;28;20083;-61
2022/08/17 06:47:57;;;;;;;17.98;16.08;;;;;;;;;;2068761;28;20402;-62
2022/08/17 06:49:20;;;;;;;18.90;16.95;;;;;;;;;;2068689;28;20469;-61
2022/08/17 06:50:47;;;;;;;18.45;16.50;;;;;;;;;;2072585;28;20482;-61
2022/08/17 06:52:15;;;;;;;22.45;17.15;;;;;;;;;;2072378;28;20457;-61
2022/08/17 06:53:44;;;;;;;19.42;17.08;;;;;;;;;;2072574;28;20108;-61
2022/08/17 06:55:15;;;;;;;19.63;17.63;;;;;;;;;;2071106;28;20111;-61
2022/08/17 06:56:37;;;;;;;19.73;17.55;;;;;;;;;;2072207;28;20474;-61
2022/08/17 06:57:58;;;;;;;18.40;16.52;;;;;;;;;;2072884;28;20030;-61
2022/08/17 06:59:20;;;;;;;19.73;17.80;;;;;;;;;;2073001;28;20061;-61
2022/08/17 07:00:41;;;;;;;20.15;17.75;;;;;;;;;;2071074;28;20045;-61
2022/08/17 07:02:04;;;;;;;17.20;15.50;;;;;;;;;;2069377;28;20034;-61
2022/08/17 07:03:23;;;;;;;17.20;15.60;;;;;;;;;;2073870;28;20030;-61
2022/08/17 07:04:42;;;;;;;17.42;15.73;;;;;;;;;;2071580;28;20022;-61
2022/08/17 07:06:07;;;;;;;17.92;16.05;;;;;;;;;;2072206;28;20390;-62
2022/08/17 07:09:13;;;;;;;17.50;15.82;;;;;;;;;;2071345;28;20030;-62
2022/08/17 07:10:47;;;;;;;17.30;15.68;;;;;;;;;;2072322;28;20042;-62
2022/08/17 07:12:17;;;;;;;18.55;16.45;;;;;;;;;;2073049;28;20113;-62
2022/08/17 07:14:05;;;;;;;20.30;17.58;;;;;;;;;;2072586;28;20034;-62
2022/08/17 07:15:32;;;;;;;19.40;16.55;;;;;;;;;;2065120;28;20038;-62
2022/08/17 07:16:53;;;;;;;18.33;16.45;;;;;;;;;;2073005;28;20046;-61
2022/08/17 07:18:12;;;;;;;16.92;15.50;;;;;;;;;;2073275;28;20070;-61
2022/08/17 07:19:32;;;;;;;17.05;15.43;;;;;;;;;;2071842;28;20030;-61
2022/08/17 07:20:55;;;;;;;18.13;16.20;;;;;;;;;;2072517;28;20061;-61
2022/08/17 07:22:14;;;;;;;;;;;;;;;;;;2073064;28;20022;-62
2022/08/17 07:23:59;;;;;;;19.02;17.08;;;;;;;;;;2071724;28;19906;-61
2022/08/17 07:25:18;;;;;;;18.60;16.77;;;;;;;;;;2071484;28;20073;-62
2022/08/17 07:26:37;;;;;;;18.45;16.60;;;;;;;;;;2072071;28;20482;-61
2022/08/17 07:27:59;;;;;;;16.80;15.18;;;;;;;;;;2072644;28;20457;-61
2022/08/17 07:29:18;;;;;;;18.30;16.48;;;;;;;;;;2072727;28;20022;-62
2022/08/17 07:30:55;;;;;;;17.50;15.73;;;;;;;;;;2068364;28;20121;-61
2022/08/17 07:32:17;;;;;;;18.80;16.90;;;;;;;;;;2073112;28;20109;-61
2022/08/17 07:33:38;;;;;;;18.48;16.58;;;;;;;;;;2073528;28;20462;-61
2022/08/17 07:35:03;;;;;;;18.90;17.08;;;;;;;;;;2071204;28;20030;-61
2022/08/17 07:36:23;;;;;;;18.70;16.95;;;;;;;;;;2068852;28;20644;-61
2022/08/17 07:37:52;;;;;;;17.70;15.90;;;;;;;;;;2070893;28;20393;-62
2022/08/17 07:39:24;;;;;;;18.25;16.48;;;;;;;;;;2072809;28;20105;-61
2022/08/17 07:40:56;;;;;;;17.70;15.82;;;;;;;;;;2071792;28;20037;-62
2022/08/17 07:42:15;;;;;;;17.65;15.90;;;;;;;;;;2071849;28;20022;-62
2022/08/17 07:43:40;;;;;;;16.98;15.20;;;;;;;;;;2070997;28;20062;-62
2022/08/17 07:48:17;;;;;;;21.27;17.38;;;;;;;;;;2072363;28;20554;-61
2022/08/17 07:48:26;;;;;;;19.38;16.55;;;;;;;;;;2072647;28;20022;-61
2022/08/17 07:49:45;;;;;;;17.45;15.75;;;;;;;;;;2071937;28;20030;-61
2022/08/17 07:51:13;;;;;;;18.08;16.33;;;;;;;;;;2070951;28;20482;-62
2022/08/17 07:52:32;;;;;;;16.55;15.15;;;;;;;;;;2072732;28;20030;-61
2022/08/17 07:53:52;;;;;;;17.48;15.88;;;;;;;;;;2072314;28;20026;-62
2022/08/17 07:55:40;;;;;;;17.75;15.90;;;;;;;;;;2072851;28;20478;-61
2022/08/17 07:57:02;;;;;;;18.67;16.77;;;;;;;;;;2068208;28;20124;-61
2022/08/17 07:58:22;;;;;;;17.63;15.77;;;;;;;;;;2071806;28;20026;-63
2022/08/17 08:00:01;;;;;;;16.95;15.38;;;;;;;;;;2069018;28;20026;-62
2022/08/17 08:01:20;;;;;;;17.27;15.68;;;;;;;;;;2071996;28;20448;-63
2022/08/17 08:02:40;;;;;;;19.92;16.08;;;;;;;;;;2070576;28;20026;-63
2022/08/17 08:04:00;;;;;;;16.35;14.65;;;;;;;;;;2071360;28;20022;-64
2022/08/17 08:05:21;;;;;;;18.30;15.43;;;;;;;;;;2071456;28;20101;-64
2022/08/17 08:06:45;;;;;;;15.80;14.32;;;;;;;;;;2072470;28;20382;-63
2022/08/17 08:08:23;;;;;;;17.63;14.60;;;;;;;;;;2072213;28;20030;-63
2022/08/17 08:09:43;;;;;;;16.80;15.13;;;;;;;;;;2070726;28;20479;-63
2022/08/17 08:11:08;;;;;;;17.17;15.38;;;;;;;;;;2070314;28;20029;-63
2022/08/17 08:12:28;;;;;;;16.75;15.00;;;;;;;;;;2072233;28;20022;-64
2022/08/17 08:13:48;;;;;;;16.08;14.57;;;;;;;;;;2072220;28;20034;-63